createdAt,value
2023-03-05T00:00:13.866Z,8.60
2023-03-05T00:02:41.132Z,7.50
2023-03-05T00:07:34.983Z,7.60
2023-03-05T00:10:02.235Z,8.30
2023-03-05T00:14:55.058Z,8.60
2023-03-05T00:17:22.196Z,8.30
2023-03-05T00:19:49.211Z,7.78
2023-03-05T00:22:16.312Z,8.13
2023-03-05T00:24:43.216Z,7.88
2023-03-05T00:27:10.088Z,7.57
2023-03-05T00:29:37.245Z,7.40
2023-03-05T00:32:04.152Z,7.85
2023-03-05T00:34:31.958Z,7.93
2023-03-05T00:36:58.801Z,8.13
2023-03-05T00:39:25.803Z,7.97
2023-03-05T00:49:09.664Z,7.70
2023-03-05T00:51:36.802Z,7.80
2023-03-05T00:54:03.997Z,7.72
2023-03-05T00:56:30.932Z,7.65
2023-03-05T00:58:57.908Z,8.05
2023-03-05T01:01:24.915Z,8.38
2023-03-05T01:03:51.939Z,8.40
2023-03-05T01:18:28.679Z,10.75
2023-03-05T01:20:55.898Z,9.13
2023-03-05T01:25:55.922Z,11.00
2023-03-05T01:28:22.878Z,11.02
2023-03-05T01:35:40.844Z,10.82
2023-03-05T01:38:08.047Z,11.00
2023-03-05T01:40:35.676Z,11.23
2023-03-05T01:43:11.524Z,11.38
2023-03-05T01:45:39.188Z,11.52
2023-03-05T01:48:06.005Z,12.80
2023-03-05T01:50:33.286Z,13.68
2023-03-05T01:53:02.885Z,13.23
2023-03-05T01:58:04.256Z,14.20
2023-03-05T02:00:34.150Z,13.10
2023-03-05T02:03:07.008Z,13.45
2023-03-05T02:05:35.346Z,13.68
2023-03-05T02:08:03.924Z,12.30
2023-03-05T02:15:31.280Z,11.85
2023-03-05T02:20:25.671Z,12.30
2023-03-05T02:22:52.980Z,13.10
2023-03-05T02:25:23.948Z,12.40
2023-03-05T02:27:55.070Z,12.38
2023-03-05T02:30:24.320Z,12.30
2023-03-05T02:32:51.356Z,11.50
2023-03-05T02:35:18.264Z,11.77
2023-03-05T02:37:45.593Z,11.10
2023-03-05T02:43:05.896Z,11.57
2023-03-05T02:45:33.404Z,11.43
2023-03-05T02:48:00.588Z,12.20
2023-03-05T02:57:45.531Z,12.25
2023-03-05T03:00:12.791Z,12.75
2023-03-05T03:02:39.620Z,12.45
2023-03-05T03:07:32.078Z,16.63
2023-03-05T03:09:59.073Z,14.25
2023-03-05T03:12:26.081Z,14.65
2023-03-05T03:17:18.808Z,13.80
2023-03-05T03:19:46.145Z,13.25
2023-03-05T03:22:13.879Z,13.15
2023-03-05T03:24:41.753Z,12.45
2023-03-05T03:27:08.716Z,12.57
2023-03-05T03:29:35.752Z,12.95
2023-03-05T03:32:02.805Z,13.30
2023-03-05T03:34:29.630Z,12.57
2023-03-05T03:39:21.966Z,12.85
2023-03-05T03:41:50.016Z,12.20
2023-03-05T03:46:44.583Z,12.68
2023-03-05T03:49:14.549Z,14.05
2023-03-05T03:51:41.582Z,13.85
2023-03-05T03:54:08.644Z,14.57
2023-03-05T03:56:36.033Z,13.93
2023-03-05T03:59:03.053Z,13.82
2023-03-05T04:01:30.044Z,12.82
2023-03-05T04:03:57.207Z,12.77
2023-03-05T04:06:24.305Z,13.35
2023-03-05T04:13:45.568Z,12.90
2023-03-05T04:18:38.353Z,13.40
2023-03-05T04:21:05.736Z,13.93
2023-03-05T04:23:32.874Z,13.07
2023-03-05T04:28:25.676Z,12.57
2023-03-05T04:30:52.919Z,14.40
2023-03-05T04:33:20.141Z,14.45
2023-03-05T04:35:47.174Z,14.15
2023-03-05T04:38:14.135Z,13.93
2023-03-05T04:45:32.280Z,12.80
2023-03-05T04:52:50.777Z,13.20
2023-03-05T05:02:41.113Z,15.52
2023-03-05T05:05:08.431Z,16.25
2023-03-05T05:07:35.457Z,15.80
2023-03-05T05:10:02.443Z,14.43
2023-03-05T05:12:30.925Z,15.20
2023-03-05T05:14:58.598Z,16.58
2023-03-05T05:17:25.648Z,15.48
2023-03-05T05:22:18.410Z,15.43
2023-03-05T05:24:45.657Z,15.55
2023-03-05T05:29:38.513Z,15.35
2023-03-05T05:32:05.607Z,14.82
2023-03-05T05:34:32.467Z,14.77
2023-03-05T05:41:51.118Z,15.30
2023-03-05T05:44:18.121Z,15.02
2023-03-05T05:46:45.153Z,14.82
2023-03-05T05:49:11.987Z,15.07
2023-03-05T05:56:30.024Z,15.63
2023-03-05T05:58:56.919Z,15.60
2023-03-05T06:01:26.430Z,15.02
2023-03-05T06:06:19.983Z,15.40
2023-03-05T06:08:46.962Z,15.80
2023-03-05T06:11:14.341Z,17.58
2023-03-05T06:13:41.429Z,16.45
2023-03-05T06:16:11.029Z,16.80
2023-03-05T06:18:37.997Z,16.67
2023-03-05T06:21:06.410Z,16.73
2023-03-05T06:23:33.575Z,16.38
2023-03-05T06:30:59.968Z,16.75
2023-03-05T06:35:52.794Z,15.60
2023-03-05T06:38:20.035Z,16.42
2023-03-05T06:40:47.160Z,17.00
2023-03-05T06:43:14.009Z,17.40
2023-03-05T06:48:06.719Z,17.67
2023-03-05T06:50:36.730Z,17.55
2023-03-05T06:53:03.834Z,17.20
2023-03-05T06:55:30.879Z,16.83
2023-03-05T06:57:57.897Z,15.68
2023-03-05T07:02:51.868Z,15.93
2023-03-05T07:05:19.009Z,15.45
2023-03-05T07:07:46.137Z,19.42
2023-03-05T07:10:13.220Z,19.70
2023-03-05T07:12:41.186Z,17.42
2023-03-05T07:17:34.274Z,14.75
2023-03-05T07:20:01.280Z,15.85
2023-03-05T07:22:28.286Z,17.95
2023-03-05T07:24:55.411Z,17.17
2023-03-05T07:27:25.623Z,16.55
2023-03-05T07:34:43.540Z,18.45
2023-03-05T07:44:27.366Z,16.83
2023-03-05T07:46:54.336Z,16.85
2023-03-05T07:49:21.376Z,16.83
2023-03-05T07:54:13.694Z,16.80
2023-03-05T07:56:40.956Z,17.27
2023-03-05T08:08:51.170Z,13.18
2023-03-05T08:11:18.381Z,13.35
2023-03-05T08:13:45.426Z,12.98
2023-03-05T08:16:14.553Z,12.75
2023-03-05T08:18:41.958Z,12.50
2023-03-05T08:21:16.399Z,12.07
2023-03-05T08:23:43.520Z,22.83
2023-03-05T08:33:38.384Z,11.68
2023-03-05T08:36:08.948Z,12.48
2023-03-05T08:38:36.226Z,16.63
2023-03-05T08:55:44.181Z,11.90
2023-03-05T09:00:37.333Z,11.38
2023-03-05T09:03:07.644Z,11.80
2023-03-05T09:10:27.406Z,11.38
2023-03-05T09:12:54.757Z,11.45
2023-03-05T09:27:34.015Z,11.13
2023-03-05T09:30:25.523Z,12.48
2023-03-05T09:32:52.890Z,12.75
2023-03-05T09:35:20.037Z,12.45
2023-03-05T09:37:47.112Z,14.25
2023-03-05T09:55:48.750Z,10.55
2023-03-05T09:58:36.136Z,11.75
2023-03-05T10:01:06.359Z,12.02
2023-03-05T10:03:36.610Z,12.52
2023-03-05T10:06:26.568Z,13.30
2023-03-05T10:09:13.930Z,10.00
2023-03-05T10:20:13.592Z,9.20
2023-03-05T10:23:07.026Z,10.40
2023-03-05T10:30:54.890Z,13.60
2023-03-05T10:33:27.778Z,12.57
2023-03-05T10:51:30.692Z,15.60
2023-03-05T11:01:37.976Z,14.68
2023-03-05T11:04:06.954Z,15.57
2023-03-05T11:17:22.586Z,7.13
2023-03-05T11:19:49.820Z,7.78
2023-03-05T11:22:22.881Z,8.90
2023-03-05T11:25:06.755Z,8.85
2023-03-05T11:27:38.084Z,9.30
2023-03-05T11:30:18.397Z,10.18
2023-03-05T11:35:31.331Z,9.32
2023-03-05T11:40:29.339Z,9.30
2023-03-05T11:42:58.507Z,7.07
2023-03-05T11:45:26.349Z,6.90
2023-03-05T11:47:54.675Z,5.55
2023-03-05T11:50:28.758Z,5.30
2023-03-05T11:53:00.810Z,6.60
2023-03-05T11:55:27.693Z,6.45
2023-03-05T11:58:05.741Z,8.13
2023-03-05T12:00:34.904Z,8.52
2023-03-05T12:03:04.744Z,5.90
2023-03-05T12:05:32.396Z,5.95
2023-03-05T12:08:01.765Z,6.25
2023-03-05T12:10:29.051Z,5.80
2023-03-05T12:15:59.925Z,4.78
2023-03-05T12:18:42.976Z,5.00
2023-03-05T12:21:23.787Z,5.10
2023-03-05T12:23:52.604Z,4.85
2023-03-05T12:26:39.603Z,5.20
2023-03-05T12:31:45.695Z,6.18
2023-03-05T12:34:31.612Z,5.70
2023-03-05T12:37:27.891Z,4.28
2023-03-05T12:40:11.107Z,4.57
2023-03-05T12:42:38.322Z,4.50
2023-03-05T12:45:16.470Z,4.38
2023-03-05T12:47:47.195Z,5.30
2023-03-05T12:55:41.258Z,7.53
2023-03-05T12:58:11.381Z,10.63
2023-03-05T13:05:38.583Z,9.60
2023-03-05T13:15:40.394Z,10.25
2023-03-05T13:38:25.309Z,17.67
2023-03-05T13:40:52.705Z,15.60
2023-03-05T13:43:22.436Z,14.52
2023-03-05T13:50:45.276Z,15.68
2023-03-05T13:53:23.094Z,14.95
2023-03-05T14:59:18.851Z,20.02
2023-03-05T15:01:46.245Z,22.15
2023-03-05T15:04:15.858Z,20.38
2023-03-05T15:57:52.306Z,20.58
2023-03-05T16:00:22.101Z,22.45
2023-03-05T16:02:50.780Z,21.85
2023-03-05T16:05:18.954Z,20.38
2023-03-05T16:07:46.919Z,21.80
2023-03-05T16:10:16.326Z,20.35
2023-03-05T16:12:45.372Z,20.80
2023-03-05T16:15:15.394Z,19.80
2023-03-05T16:17:44.219Z,20.52
2023-03-05T16:25:04.355Z,18.80
2023-03-05T16:27:31.609Z,18.02
2023-03-05T16:29:58.965Z,22.02
2023-03-05T16:32:26.406Z,19.45
2023-03-05T16:37:20.574Z,16.30
2023-03-05T16:39:47.949Z,19.70
2023-03-05T16:44:41.346Z,18.85
2023-03-05T16:47:08.949Z,19.67
2023-03-05T16:49:37.042Z,18.88
2023-03-05T16:52:17.723Z,19.45
2023-03-05T16:54:45.799Z,21.33
2023-03-05T16:57:15.215Z,18.95
2023-03-05T16:59:43.921Z,19.95
2023-03-05T17:04:39.098Z,19.95
2023-03-05T17:07:06.219Z,20.23
2023-03-05T17:09:33.350Z,18.35
2023-03-05T17:12:00.378Z,22.65
2023-03-05T17:14:27.477Z,20.75
2023-03-05T17:16:57.477Z,23.33
2023-03-05T17:19:24.517Z,21.40
2023-03-05T17:21:52.437Z,21.90
2023-03-05T17:29:12.759Z,25.00
2023-03-05T17:41:23.807Z,25.08
2023-03-05T17:43:51.886Z,21.95
2023-03-05T17:48:44.946Z,24.55
2023-03-05T17:51:13.986Z,21.95
2023-03-05T17:58:33.916Z,21.10
2023-03-05T18:03:27.095Z,23.13
2023-03-05T18:05:54.457Z,25.20
2023-03-05T18:08:21.696Z,27.10
2023-03-05T18:10:48.943Z,27.17
2023-03-05T18:13:16.075Z,23.75
2023-03-05T18:15:47.885Z,24.30
2023-03-05T18:18:15.838Z,23.48
2023-03-05T18:20:43.200Z,24.50
2023-03-05T18:25:36.612Z,27.13
2023-03-05T18:28:06.020Z,24.30
2023-03-05T18:40:33.566Z,24.83
2023-03-05T18:43:01.501Z,26.05
2023-03-05T18:45:29.449Z,22.05
2023-03-05T18:52:50.467Z,24.20
2023-03-05T18:55:19.260Z,24.15
2023-03-05T18:57:46.514Z,26.23
2023-03-05T19:00:14.602Z,23.52
2023-03-05T19:13:40.281Z,28.20
2023-03-05T19:16:14.157Z,24.10
2023-03-05T19:21:47.006Z,26.88
2023-03-05T19:24:17.046Z,23.58
2023-03-05T19:31:47.418Z,27.33
2023-03-05T19:34:20.422Z,33.15
2023-03-05T19:36:54.406Z,28.65
2023-03-05T19:39:24.755Z,27.80
2023-03-05T19:44:19.840Z,26.42
2023-03-05T19:46:48.765Z,24.88
2023-03-05T19:51:43.978Z,25.58
2023-03-05T19:54:12.418Z,24.33
2023-03-05T19:59:06.377Z,26.05
2023-03-05T20:01:42.664Z,24.55
2023-03-05T20:06:45.922Z,25.30
2023-03-05T20:09:13.356Z,24.67
2023-03-05T20:11:40.731Z,24.05
2023-03-05T20:14:08.734Z,24.48
2023-03-05T20:21:34.551Z,26.42
2023-03-05T20:24:04.143Z,24.77
2023-03-05T20:26:31.440Z,23.80
2023-03-05T20:28:58.970Z,24.35
2023-03-05T20:31:26.810Z,23.83
2023-03-05T20:33:54.087Z,23.30
2023-03-05T20:36:22.884Z,24.02
2023-03-05T20:38:50.498Z,24.77
2023-03-05T21:23:26.207Z,23.15
2023-03-05T21:25:53.841Z,23.80
2023-03-05T22:18:13.584Z,21.00
2023-03-05T22:20:41.413Z,21.35
2023-03-05T22:23:08.655Z,22.95
2023-03-05T22:49:59.576Z,20.20
2023-03-05T22:52:27.058Z,20.20
2023-03-05T23:14:52.317Z,20.90
2023-03-05T23:17:19.676Z,20.70
2023-03-05T23:22:13.205Z,21.10
2023-03-05T23:24:40.836Z,20.17
2023-03-05T23:30:11.057Z,19.67
2023-03-05T23:32:38.427Z,20.52
2023-03-05T23:35:06.028Z,21.38
2023-03-05T23:37:33.150Z,21.15
2023-03-05T23:40:00.268Z,20.75
2023-03-05T23:42:27.635Z,20.77
2023-03-05T23:44:54.996Z,19.50
2023-03-05T23:49:47.864Z,19.40
2023-03-05T23:52:15.178Z,19.63
2023-03-05T23:57:08.218Z,19.30
2023-03-05T23:59:36.421Z,20.70
